Arcadia, Wisconsin
Current Conditions -  °F | °C
As of 11:55 PM on Thursday 27 Nov 2014 (Local Time) from KONA Reporting Station
Broken Clouds Broken Clouds  
Wind Chill: -11°   Ceiling: 6000
Heat Index: -11°   Visibility: 10mi
Dew Point: -16°   Wind: 3mph
Humidity: 67%   Direction: 120°ESE
Pressure: 30.34"   Gusts: NA
Location:  44.25°N, 91.5°W
Report Text: KONA 280555Z AUTO 12003KT 10SM BKN060 BKN070 BKN080 M11/M16 A3034 RMK AO2
Loading
Personal Weather Stations






























Interactive Weather Map New forecast layout! Learn more

10-Day Weather Forecast

Advertisements
Track Severe Weather on mobile